地図

経路データ

SID SEASON NUMBER BASIN SUBBASIN NAME ISO_TIME NATURE LAT LON WMO_WIND WMO_PRES WMO_AGENCY TRACK_TYPE DIST2LAND LANDFALL IFLAG USA_AGENCY USA_ATCF_ID USA_LAT USA_LON USA_RECORD USA_STATUS USA_WIND USA_PRES USA_SSHS USA_R34_NE USA_R34_SE USA_R34_SW USA_R34_NW USA_R50_NE USA_R50_SE USA_R50_SW USA_R50_NW USA_R64_NE USA_R64_SE USA_R64_SW USA_R64_NW USA_POCI USA_ROCI USA_RMW USA_EYE TOKYO_LAT TOKYO_LON TOKYO_GRADE TOKYO_WIND TOKYO_PRES TOKYO_R50_DIR TOKYO_R50_LONG TOKYO_R50_SHORT TOKYO_R30_DIR TOKYO_R30_LONG TOKYO_R30_SHORT TOKYO_LAND CMA_LAT CMA_LON CMA_CAT CMA_WIND CMA_PRES HKO_LAT HKO_LON HKO_CAT HKO_WIND HKO_PRES NEWDELHI_LAT NEWDELHI_LON NEWDELHI_GRADE NEWDELHI_WIND NEWDELHI_PRES NEWDELHI_CI NEWDELHI_DP NEWDELHI_POCI REUNION_LAT REUNION_LON REUNION_TYPE REUNION_WIND REUNION_PRES REUNION_TNUM REUNION_CI REUNION_RMW REUNION_R34_NE REUNION_R34_SE REUNION_R34_SW REUNION_R34_NW REUNION_R50_NE REUNION_R50_SE REUNION_R50_SW REUNION_R50_NW REUNION_R64_NE REUNION_R64_SE REUNION_R64_SW REUNION_R64_NW BOM_LAT BOM_LON BOM_TYPE BOM_WIND BOM_PRES BOM_TNUM BOM_CI BOM_RMW BOM_R34_NE BOM_R34_SE BOM_R34_SW BOM_R34_NW BOM_R50_NE BOM_R50_SE BOM_R50_SW BOM_R50_NW BOM_R64_NE BOM_R64_SE BOM_R64_SW BOM_R64_NW BOM_ROCI BOM_POCI BOM_EYE BOM_POS_METHOD BOM_PRES_METHOD NADI_LAT NADI_LON NADI_CAT NADI_WIND NADI_PRES WELLINGTON_LAT WELLINGTON_LON WELLINGTON_WIND WELLINGTON_PRES DS824_LAT DS824_LON DS824_STAGE DS824_WIND DS824_PRES TD9636_LAT TD9636_LON TD9636_STAGE TD9636_WIND TD9636_PRES TD9635_LAT TD9635_LON TD9635_WIND TD9635_PRES TD9635_ROCI NEUMANN_LAT NEUMANN_LON NEUMANN_CLASS NEUMANN_WIND NEUMANN_PRES MLC_LAT MLC_LON MLC_CLASS MLC_WIND MLC_PRES USA_GUST BOM_GUST BOM_GUST_PER REUNION_GUST REUNION_GUST_PER USA_SEAHGT USA_SEARAD_NE USA_SEARAD_SE USA_SEARAD_SW USA_SEARAD_NW STORM_SPEED STORM_DIR
1987200N04191 1987 45 EP CP WYNNE 1987-07-18 12:00:00 NR 4.40000 191.000 main 2040 2029 O_________O___ jtwc_wp WP071987 4.40000 -169.000 20 -1 4.40000 -169.000 1 20 12 270
1987200N04191 1987 45 EP CP WYNNE 1987-07-18 15:00:00 NR 4.39942 190.412 main 2029 2020 P_________P___ WP071987 4.40005 -169.588 20 -1 4.39880 -169.589 1 20 12 270
1987200N04191 1987 45 EP CP WYNNE 1987-07-18 18:00:00 NR 4.39895 189.809 main 2020 2013 O_________P___ jtwc_wp WP071987 4.40000 -170.200 20 -1 4.39790 -170.182 1 20 12 270
1987200N04191 1987 45 EP CP WYNNE 1987-07-18 21:00:00 NR 4.39904 189.189 main 2013 2008 P_________P___ WP071987 4.40003 -170.837 20 -1 4.39805 -170.785 1 20 12 270
1987200N04191 1987 45 EP CP WYNNE 1987-07-19 00:00:00 NR 4.40000 188.600 main 2008 2006 O_________O___ jtwc_wp WP071987 4.40000 -171.400 20 -1 4.40000 -171.400 1 20 10 270
1987200N04191 1987 45 EP CP WYNNE 1987-07-19 03:00:00 NR 4.40177 188.138 main 2006 2005 P_________P___ WP071987 4.39969 -171.690 20 -1 4.40384 -172.033 1 20 10 270
1987200N04191 1987 45 EP CP WYNNE 1987-07-19 06:00:00 NR 4.40358 187.605 main 2005 2005 O_________P___ jtwc_wp WP071987 4.40000 -172.100 20 -1 4.40716 -172.690 1 20 13 270
1987200N04191 1987 45 EP CP WYNNE 1987-07-19 09:00:00 NR 4.40736 186.792 main 2005 2005 P_________P___ WP071987 4.40781 -173.040 20 -1 4.40690 -173.377 1 20 17 270
1987200N04191 1987 45 EP CP WYNNE 1987-07-19 12:00:00 NR 4.40000 185.900 main 2010 2010 O_________O___ jtwc_wp WP071987 4.40000 -174.100 20 -1 4.40000 -174.100 1 20 16 268
1987200N04191 1987 45 EP CP WYNNE 1987-07-19 15:00:00 NR 4.36381 185.144 main 2018 2010 P_________P___ WP071987 4.34976 -174.873 20 -1 4.37786 -174.840 1 20 15 267
1987200N04191 1987 45 EP CP WYNNE 1987-07-19 18:00:00 NR 4.32479 184.391 main 2018 2018 O_________P___ jtwc_wp WP071987 4.30000 -175.600 20 -1 4.34958 -175.618 1 20 16 268
1987200N04191 1987 45 EP CP WYNNE 1987-07-19 21:00:00 NR 4.30696 183.572 main 2033 2033 P_________P___ WP071987 4.29240 -176.420 20 -1 4.32152 -176.437 1 20 17 269
1987200N04191 1987 45 EP CP WYNNE 1987-07-20 00:00:00 NR 4.30000 182.700 main 2055 2055 O_________O___ jtwc_wp WP071987 4.30000 -177.300 20 -1 4.30000 -177.300 1 20 18 269
1987200N04191 1987 45 EP CP WYNNE 1987-07-20 03:00:00 NR 4.27813 181.769 main 2081 2081 P_________P___ WP071987 4.29994 -178.235 20 -1 4.25632 -178.227 1 20 19 269
1987200N04191 1987 45 EP CP WYNNE 1987-07-20 06:00:00 NR 4.26256 180.803 main 2115 2115 O_________P___ jtwc_wp WP071987 4.30000 -179.200 20 -1 4.22512 -179.193 1 20 19 270
1987200N04191 1987 45 WP MM WYNNE 1987-07-20 09:00:00 NR 4.26186 179.840 main 2155 2155 P_________P___ WP071987 4.29241 179.842 20 -1 4.23131 179.838 1 20 19 271
1987200N04191 1987 45 WP MM WYNNE 1987-07-20 12:00:00 NR 4.30000 178.900 main 2194 2194 O_________O___ jtwc_wp WP071987 4.30000 178.900 20 -1 4.30000 178.900 1 20 19 273
1987200N04191 1987 45 WP MM WYNNE 1987-07-20 15:00:00 NR 4.34659 177.988 main 2238 2238 P_________P___ WP071987 4.28994 177.970 22 -1 4.40324 178.007 1 22 18 276
1987200N04191 1987 45 WP MM WYNNE 1987-07-20 18:00:00 NR 4.48866 177.126 main 2304 2267 O_________P___ jtwc_wp WP071987 4.40000 177.100 25 -1 4.57731 177.152 1 25 17 285
1987200N04191 1987 45 WP MM WYNNE 1987-07-20 21:00:00 NR 4.78131 176.330 main 2266 2256 P_________P___ WP071987 4.72490 176.313 27 -1 4.83771 176.347 1 27 14 299
1987200N04191 1987 45 WP MM WYNNE 1987-07-21 00:00:00 TS 5.17778 175.867 1006 tokyo main 2264 2255 OO________O___ jtwc_wp WP071987 5.20000 175.600 30 -1 5.00000 178.000 2 1006 0 0 0 5.20000 175.600 1 30 13 312
1987200N04191 1987 45 WP MM WYNNE 1987-07-21 03:00:00 TS 5.66768 175.334 main 2255 2247 PP________P___ WP071987 5.71991 174.927 32 -1 5.51048 176.958 2 1006 0 0 5.69406 174.930 1 31 15 313
1987200N04191 1987 45 WP MM WYNNE 1987-07-21 06:00:00 TS 6.21150 174.768 1006 tokyo main 2256 2248 OO________P___ jtwc_wp WP071987 6.30000 174.300 35 0 6.00000 176.000 2 1006 0 0 0 6.28163 174.313 1 32 16 314
1987200N04191 1987 45 WP MM WYNNE 1987-07-21 09:00:00 TS 6.76098 174.200 main 2261 2252 PP________P___ WP071987 6.92233 173.707 35 0 6.45718 175.177 2 1006 0 0 6.90342 173.714 1 33 16 312
1987200N04191 1987 45 WP MM WYNNE 1987-07-21 12:00:00 TS 7.30000 173.533 1006 tokyo main 2254 2242 OO________O___ jtwc_wp WP071987 7.50000 173.100 35 0 6.90000 174.400 2 1006 0 0 0 7.50000 173.100 2 35 17 306
1987200N04191 1987 45 WP MM WYNNE 1987-07-21 15:00:00 TS 7.75808 172.800 main 2251 2233 PP________P___ WP071987 7.91495 172.415 37 0 7.35734 173.565 2 1006 0 0 8.00194 172.421 2 37 17 301
1987200N04191 1987 45 WP MM WYNNE 1987-07-21 18:00:00 TS 8.18905 172.041 1006 tokyo main 2236 2228 OO________P___ jtwc_wp WP071987 8.30000 171.700 40 0 7.80000 172.700 2 1006 0 0 0 8.46715 171.722 2 40 18 300
1987200N04191 1987 45 WP MM WYNNE 1987-07-21 21:00:00 TS 8.63783 171.273 main 2232 2226 PP________P___ WP071987 8.79983 171.007 42 0 8.21489 171.800 2 1005 0 0 8.89878 171.012 2 42 18 299
1987200N04191 1987 45 WP MM WYNNE 1987-07-22 00:00:00 TS 9.05385 170.469 1004 tokyo main 2236 2225 OO_O______O___ jtwc_wp WP071987 9.30000 170.300 45 0 8.60000 170.900 2 1004 0 0 0 8.90000 170.100 TD 30 1002 9.30000 170.300 2 45 18 298
1987200N04191 1987 45 WP MM WYNNE 1987-07-22 03:00:00 TS 9.47766 169.705 main 2235 2226 PP_P______P___ WP071987 9.72997 169.542 45 0 8.97220 170.050 2 1003 0 0 9.47772 169.513 TD 32 1001 9.73078 169.620 2 45 17 297
1987200N04191 1987 45 WP MM WYNNE 1987-07-22 06:00:00 TS 9.81909 168.966 40 1002 tokyo main 2232 2228 OOOO______P___ jtwc_wp WP071987 10.1000 168.800 45 0 9.30000 169.200 3 40 1002 0 9 50 50 0 9.00000 169.000 1 23 1004 10.0000 168.900 TS 35 1000 10.1263 168.938 2 45 16 295
1987200N04191 1987 45 WP MM WYNNE 1987-07-22 09:00:00 TS 10.1490 168.240 main 2229 2229 PPPP______P___ WP071987 10.4446 168.165 45 0 9.57970 168.322 3 40 1002 0 9 50 50 9.54010 168.240 1 23 1004 10.4173 168.237 TS 35 1000 10.4588 168.236 2 45 16 291
1987200N04191 1987 45 WP MM WYNNE 1987-07-22 12:00:00 TS 10.4000 167.463 40 1002 tokyo main 2233 2213 OOOO______O___ jtwc_wp WP071987 10.7000 167.500 45 0 9.80000 167.400 3 40 1002 0 9 50 50 0 10.0000 167.400 1 23 1004 10.7000 167.500 TS 35 1000 10.7000 167.500 2 45 17 284
1987200N04191 1987 45 WP MM WYNNE 1987-07-22 15:00:00 TS 10.5617 166.578 main 2217 2162 PPPP______P___ WP071987 10.8526 166.672 45 0 9.97258 166.385 3 40 1001 0 9 50 50 10.3176 166.442 1 26 1003 10.8599 166.672 TS 37 999 10.8059 166.718 2 46 18 278
1987200N04191 1987 45 WP MM WYNNE 1987-07-22 18:00:00 TS 10.6449 165.680 40 1000 tokyo main 2162 2115 OOOO______P___ jtwc_wp WP071987 10.9000 165.800 45 0 10.1000 165.400 3 40 1000 0 9 50 50 0 10.5000 165.500 1 29 1002 10.9000 165.800 TS 40 998 10.8244 165.901 2 47 17 273
1987200N04191 1987 45 WP MM WYNNE 1987-07-22 21:00:00 TS 10.6644 164.861 main 2115 2060 PPPP______P___ WP071987 10.8646 165.007 47 0 10.2070 164.577 3 40 999 0 9 50 50 10.5722 164.705 1 33 1000 10.8722 164.957 TS 42 996 10.8057 165.058 2 48 16 271
1987200N04191 1987 45 WP MM WYNNE 1987-07-23 00:00:00 TS 10.6600 164.060 40 998 tokyo main 2060 2007 OOOO______O___ jtwc_wp WP071987 10.8000 164.200 50 0 10.3000 163.800 3 40 998 0 9 50 50 0 10.6000 164.000 2 38 998 10.8000 164.100 TS 45 995 10.8000 164.200 2 50 16 271
1987200N04191 1987 45 WP MM WYNNE 1987-07-23 03:00:00 TS 10.6864 163.227 main 2000 1946 PPPP______P___ WP071987 10.7624 163.307 50 0 10.3849 162.950 3 40 997 0 9 62 62 10.6996 163.365 2 38 998 10.7274 163.192 TS 45 995 10.8579 163.323 2 51 16 273
1987200N04191 1987 45 WP MM WYNNE 1987-07-23 06:00:00 TS 10.7480 162.387 40 996 tokyo main 1946 1904 OOOO______P___ jtwc_wp WP071987 10.8000 162.400 50 0 10.5000 162.100 3 40 996 0 9 75 75 0 10.8000 162.700 2 38 998 10.7000 162.300 TS 45 995 10.9398 162.435 2 52 17 276
1987200N04191 1987 45 WP MM WYNNE 1987-07-23 09:00:00 TS 10.8577 161.546 main 1907 1875 PPPP______P___ WP071987 10.9698 161.528 52 0 10.6773 161.285 3 45 995 0 9 100 100 10.8349 161.887 2 43 996 10.7547 161.477 TS 45 995 11.0517 161.554 2 53 17 279
1987200N04191 1987 45 WP MM WYNNE 1987-07-23 12:00:00 TS 11.0200 160.720 50 994 tokyo main 1869 1848 OOOO______O___ jtwc_wp WP071987 11.2000 160.700 55 0 10.9000 160.500 4 50 994 0 9 125 125 0 10.9000 161.000 3 48 995 10.9000 160.700 TS 45 995 11.2000 160.700 2 55 16 282
1987200N04191 1987 45 WP MM WYNNE 1987-07-23 15:00:00 TS 11.2101 159.920 main 1842 1824 PPPP______P___ WP071987 11.3921 159.942 57 0 11.1273 159.735 4 50 992 0 9 137 137 11.0474 160.092 3 48 992 11.1198 159.942 TS 47 992 11.3639 159.888 2 57 16 286
1987200N04191 1987 45 WP MM WYNNE 1987-07-23 18:00:00 TS 11.4533 159.141 50 990 tokyo main 1829 1814 OOOO______P___ jtwc_wp WP071987 11.6000 159.200 60 0 11.4000 159.000 4 50 990 0 9 150 150 0 11.3000 159.200 3 48 990 11.4000 159.200 STS 50 990 11.5664 159.104 2 60 16 289
1987200N04191 1987 45 WP MM WYNNE 1987-07-23 21:00:00 TS 11.7455 158.370 main 1814 1809 PPPP______P___ WP071987 11.8275 158.392 62 0 11.7198 158.292 4 55 987 0 9 150 150 11.6848 158.370 3 53 987 11.6848 158.450 STS 55 987 11.8108 158.344 2 62 16 293
1987200N04191 1987 45 WP MM WYNNE 1987-07-24 00:00:00 TS 12.0800 157.620 60 985 tokyo main 1816 1811 OOOO______O___ jtwc_wp WP071987 12.1000 157.600 65 1 12.1000 157.600 4 60 985 9 50 50 9 150 150 0 12.1000 157.600 3 58 985 12.0000 157.700 STS 60 985 12.1000 157.600 3 65 16 296
1987200N04191 1987 45 WP MM WYNNE 1987-07-24 03:00:00 TS 12.4322 156.909 main 1817 1817 PPPP______P___ WP071987 12.4271 156.892 67 1 12.5571 156.922 4 62 980 9 60 60 9 175 175 12.3995 156.907 3 63 982 12.3423 156.950 STS 62 980 12.4349 156.873 3 67 16 297
1987200N04191 1987 45 WP MM WYNNE 1987-07-24 06:00:00 TS 12.8022 156.191 65 975 tokyo main 1832 1829 OOOO______P___ jtwc_wp WP071987 12.8000 156.200 70 1 13.0000 156.200 5 65 975 9 70 70 9 200 200 0 12.7000 156.200 4 68 980 12.7000 156.200 T 65 975 12.8111 156.157 3 70 16 297
1987200N04191 1987 45 WP MM WYNNE 1987-07-24 09:00:00 TS 13.1757 155.419 main 1849 1846 PPPP______P___ WP071987 13.2073 155.465 72 1 13.3150 155.365 5 70 970 9 70 70 9 200 200 13.1076 155.358 4 72 972 13.0421 155.472 T 67 970 13.2068 155.438 3 72 17 296
1987200N04191 1987 45 WP MM WYNNE 1987-07-24 12:00:00 TS 13.5400 154.620 75 965 tokyo main 1860 1860 OOOO______O___ jtwc_wp WP071987 13.6000 154.700 75 1 13.6000 154.500 5 75 965 9 70 70 9 200 200 0 13.5000 154.500 4 77 965 13.4000 154.700 T 70 965 13.6000 154.700 4 75 17 294
1987200N04191 1987 45 WP MM WYNNE 1987-07-24 15:00:00 TS 13.8666 153.821 main 1887 1883 PPPP______P___ WP071987 13.8998 153.907 80 1 13.9422 153.692 5 77 957 9 80 80 9 225 225 13.7418 153.764 4 77 965 13.7924 153.822 T 75 960 13.9568 153.917 4 80 17 293
1987200N04191 1987 45 WP MM WYNNE 1987-07-24 18:00:00 TS 14.2014 153.003 80 950 tokyo main 1907 1906 OOOO______P___ jtwc_wp WP071987 14.2000 153.100 85 2 14.3000 152.900 5 80 950 9 90 90 9 250 250 0 14.0000 153.000 4 77 965 14.2000 152.900 T 80 955 14.3070 153.114 4 85 18 294
1987200N04191 1987 45 WP MM WYNNE 1987-07-24 21:00:00 TS 14.5877 152.142 main 1941 1938 PPPP______P___ WP071987 14.5923 152.293 90 2 14.6497 152.100 5 80 942 9 90 90 9 250 250 14.4354 152.043 4 87 955 14.6075 151.970 T 85 950 14.6537 152.304 4 90 18 295
1987200N04191 1987 45 WP MM WYNNE 1987-07-25 00:00:00 TS 14.9800 151.300 80 935 tokyo main 1963 1960 OOOO______O___ jtwc_wp WP071987 15.0000 151.500 95 2 15.0000 151.300 5 80 935 9 90 90 9 250 250 0 14.9000 151.100 5 97 945 15.0000 151.100 ST 90 945 15.0000 151.500 4 95 17 296
1987200N04191 1987 45 WP MM WYNNE 1987-07-25 03:00:00 TS 15.3325 150.538 main 1978 1978 PPPP______P___ WP071987 15.3571 150.750 100 3 15.3499 150.485 5 87 930 9 95 95 9 250 250 15.2493 150.369 5 101 942 15.3570 150.370 ST 95 937 15.3491 150.717 4 98 16 296
1987200N04191 1987 45 WP MM WYNNE 1987-07-25 06:00:00 TS 15.6798 149.808 95 925 tokyo main 2011 2010 OOOO______P___ jtwc_wp WP071987 15.7000 150.000 105 3 15.7000 149.700 5 95 925 9 100 100 9 250 250 0 15.6000 149.700 6 106 940 15.7000 149.700 SuperT 100 930 15.6988 149.941 4 102 16 297
1987200N04191 1987 45 WP MM WYNNE 1987-07-25 09:00:00 TS 16.0480 149.074 main 2036 2036 PPPP______P___ WP071987 16.0498 149.207 107 3 16.0419 149.007 5 95 925 9 100 100 9 250 250 16.0497 148.972 6 106 940 16.0496 149.015 SuperT 100 930 16.0491 149.170 4 106 16 297
1987200N04191 1987 45 WP MM WYNNE 1987-07-25 12:00:00 TS 16.4200 148.320 95 925 tokyo main 2074 2074 OOOO______O___ jtwc_wp WP071987 16.4000 148.400 110 3 16.4000 148.300 5 95 925 9 100 100 9 250 250 0 16.5000 148.200 6 106 940 16.4000 148.300 SuperT 100 930 16.4000 148.400 4 110 17 296
1987200N04191 1987 45 WP MM WYNNE 1987-07-25 15:00:00 TS 16.7881 147.511 main 2117 2099 PPPP______P___ WP071987 16.7498 147.592 112 3 16.8075 147.465 5 92 925 9 112 112 9 250 250 16.8726 147.342 6 106 935 16.7498 147.522 SuperT 105 927 16.7611 147.633 4 112 17 295
1987200N04191 1987 45 WP MM WYNNE 1987-07-25 18:00:00 TS 17.1442 146.693 90 925 tokyo main 2099 2032 OOOO______P___ jtwc_wp WP071987 17.1000 146.800 115 4 17.2000 146.600 5 90 925 9 125 125 9 250 250 0 17.2000 146.500 6 106 930 17.1000 146.700 SuperT 110 925 17.1210 146.864 4 115 17 294
1987200N04191 1987 45 WP MM WYNNE 1987-07-25 21:00:00 TS 17.4828 145.906 main 2032 1978 PPPP______P___ WP071987 17.4570 146.050 117 4 17.5148 145.777 5 95 922 9 125 125 9 250 250 17.5070 145.777 6 111 926 17.4650 145.835 SuperT 115 923 17.4704 146.089 4 117 16 294
1987200N04191 1987 45 WP MM WYNNE 1987-07-26 00:00:00 TS 17.8000 145.140 100 920 tokyo main 1973 1911 OOOO______O___ jtwc_wp WP071987 17.8000 145.300 120 4 17.8000 145.000 5 100 920 9 125 125 9 250 250 0 17.8000 145.100 6 116 923 17.8000 145.000 SuperT 120 922 17.8000 145.300 4 120 16 293
1987200N04191 1987 45 WP MM WYNNE 1987-07-26 03:00:00 TS 18.0919 144.397 main 1911 1850 PPPP______P___ WP071987 18.1147 144.515 122 4 18.0995 144.292 5 100 920 9 125 125 9 250 250 18.0995 144.422 6 116 923 18.0493 144.292 SuperT 120 922 18.0965 144.464 4 121 15 292
1987200N04191 1987 45 WP MM WYNNE 1987-07-26 06:00:00 TS 18.3745 143.644 100 920 tokyo main 1846 1786 OOOO______P___ jtwc_wp WP071987 18.4000 143.700 125 4 18.4000 143.600 5 100 920 9 125 125 9 250 250 0 18.4000 143.700 6 116 923 18.3000 143.600 SuperT 120 922 18.3725 143.619 4 122 16 291
1987200N04191 1987 45 WP MM WYNNE 1987-07-26 09:00:00 TS 18.6720 142.825 main 1783 1736 PPPP______P___ WP071987 18.6576 142.827 125 4 18.7073 142.857 5 100 920 9 125 125 9 250 250 18.7076 142.857 6 121 921 18.6501 142.793 SuperT 120 922 18.6372 142.789 4 123 16 291
1987200N04191 1987 45 WP MM WYNNE 1987-07-26 12:00:00 TS 18.9600 142.020 100 920 tokyo main 1722 1677 OOOO______O___ jtwc_wp WP071987 18.9000 142.000 125 4 19.0000 142.100 5 100 920 9 125 125 9 250 250 0 19.0000 142.000 6 126 920 19.0000 142.000 SuperT 120 922 18.9000 142.000 4 125 15 291
1987200N04191 1987 45 WP MM WYNNE 1987-07-26 15:00:00 TS 19.2158 141.296 main 1677 1622 PPPP______P___ WP071987 19.1418 141.327 122 4 19.2498 141.342 5 100 920 9 125 125 9 250 250 19.2573 141.212 6 126 920 19.2645 141.327 SuperT 120 922 19.1655 141.273 4 122 14 291
1987200N04191 1987 45 WP MM WYNNE 1987-07-26 18:00:00 TS 19.4666 140.618 100 920 tokyo main 1616 1564 OOOO______P___ jtwc_wp WP071987 19.4000 140.700 120 4 19.5000 140.600 5 100 920 9 125 125 9 250 250 0 19.5000 140.500 6 126 920 19.5000 140.700 SuperT 120 922 19.4332 140.589 4 120 14 292
1987200N04191 1987 45 WP MM WYNNE 1987-07-26 21:00:00 TS 19.7327 139.943 main 1558 1497 PPPP______P___ WP071987 19.6925 139.992 117 4 19.7924 139.870 5 100 922 9 125 125 9 250 250 19.7346 139.870 6 126 922 19.7348 140.050 SuperT 117 923 19.7094 139.935 4 117 14 294
1987200N04191 1987 45 WP MM WYNNE 1987-07-27 00:00:00 TS 20.0200 139.300 100 925 tokyo main 1497 1437 OOOO______O___ jtwc_wp WP071987 20.0000 139.300 115 4 20.1000 139.200 5 100 925 9 125 125 9 250 250 0 20.0000 139.300 6 126 925 20.0000 139.400 SuperT 115 925 20.0000 139.300 4 115 13 297
1987200N04191 1987 45 WP MM WYNNE 1987-07-27 03:00:00 TS 20.3295 138.692 main 1437 1376 PPPP______P___ WP071987 20.2921 138.692 115 4 20.3920 138.635 5 97 925 9 125 125 9 250 250 20.3346 138.757 6 121 925 20.3349 138.735 SuperT 115 925 20.2938 138.644 4 116 13 300
1987200N04191 1987 45 WP MM WYNNE 1987-07-27 06:00:00 TS 20.6609 138.101 95 925 tokyo main 1366 1306 OOOO______P___ jtwc_wp WP071987 20.6000 138.100 115 4 20.7000 138.100 5 95 925 9 125 125 9 250 250 0 20.7000 138.200 6 116 926 20.7000 138.100 SuperT 115 925 20.6044 138.004 4 117 13 301
1987200N04191 1987 45 WP MM WYNNE 1987-07-27 09:00:00 TS 21.0015 137.480 main 1306 1246 PPPP______P___ WP071987 20.9350 137.442 117 4 21.0425 137.492 5 95 927 9 125 125 9 250 250 21.0427 137.542 6 116 927 21.0497 137.535 SuperT 110 927 20.9377 137.387 4 118 13 302
1987200N04191 1987 45 WP MM WYNNE 1987-07-27 12:00:00 TS 21.3600 136.880 95 930 tokyo main 1237 1183 OOOO______O___ jtwc_wp WP071987 21.3000 136.800 120 4 21.4000 136.900 5 95 930 9 125 125 9 250 250 0 21.4000 136.900 6 116 928 21.4000 137.000 SuperT 105 930 21.3000 136.800 4 120 13 304
1987200N04191 1987 45 WP MM WYNNE 1987-07-27 15:00:00 TS 21.7336 136.331 main 1178 1115 PPPP______P___ WP071987 21.6847 136.227 117 4 21.7497 136.385 5 95 930 9 125 125 9 250 250 21.7996 136.377 6 116 929 21.7424 136.442 SuperT 105 930 21.6917 136.222 4 117 13 308
1987200N04191 1987 45 WP MM WYNNE 1987-07-27 18:00:00 TS 22.1224 135.815 95 930 tokyo main 1115 1052 OOOO______P___ jtwc_wp WP071987 22.1000 135.700 115 4 22.1000 135.900 5 95 930 9 125 125 9 250 250 0 22.2000 135.900 6 116 930 22.1000 135.900 SuperT 105 930 22.1120 135.675 4 115 12 309
1987200N04191 1987 45 WP MM WYNNE 1987-07-27 21:00:00 TS 22.5112 135.299 main 1052 991 PPPP______P___ WP071987 22.5424 135.177 112 3 22.4425 135.385 5 95 927 9 125 125 9 250 250 22.5350 135.385 6 116 927 22.4848 135.385 SuperT 107 927 22.5513 135.165 4 112 12 311
1987200N04191 1987 45 WP MM WYNNE 1987-07-28 00:00:00 TS 22.9200 134.820 95 925 tokyo main 991 934 OOOO______O___ jtwc_wp WP071987 23.0000 134.700 110 3 22.8000 134.900 5 95 925 9 125 125 9 250 250 0 22.9000 134.900 6 116 925 22.9000 134.900 SuperT 110 925 23.0000 134.700 4 110 12 315
1987200N04191 1987 45 WP MM WYNNE 1987-07-28 03:00:00 TS 23.3607 134.385 main 923 867 PPPP______P___ WP071987 23.4498 134.277 110 3 23.1848 134.477 5 95 925 9 125 125 9 250 250 23.3923 134.485 6 116 925 23.3424 134.427 SuperT 110 925 23.4342 134.257 4 108 12 320
1987200N04191 1987 45 WP MM WYNNE 1987-07-28 06:00:00 TS 23.8154 133.992 95 925 tokyo main 867 811 OOOO______P___ jtwc_wp WP071987 23.9000 133.900 110 3 23.6000 134.100 5 95 925 9 125 125 9 250 250 0 23.9000 134.100 6 116 925 23.8000 134.000 SuperT 110 925 23.8769 133.859 4 107 11 322
1987200N04191 1987 45 WP MM WYNNE 1987-07-28 09:00:00 TS 24.2487 133.618 main 811 748 PPPP______P___ WP071987 24.3499 133.535 107 3 24.0199 133.735 5 97 925 9 125 112 9 250 225 24.3000 133.685 6 116 923 24.2424 133.627 SuperT 110 925 24.3312 133.507 4 106 11 324
1987200N04191 1987 45 WP MM WYNNE 1987-07-28 12:00:00 TS 24.7000 133.280 100 925 tokyo main 748 685 OOOO______O___ jtwc_wp WP071987 24.8000 133.200 105 3 24.5000 133.400 5 100 925 1 125 100 1 250 200 0 24.7000 133.300 6 116 921 24.7000 133.300 SuperT 110 925 24.8000 133.200 4 105 11 328
1987200N04191 1987 45 WP MM WYNNE 1987-07-28 15:00:00 TS 25.1917 132.960 main 685 623 PPPP______P___ WP071987 25.2350 132.870 102 3 25.0849 133.085 5 97 927 1 112 87 1 225 175 25.1849 132.970 6 111 925 25.1924 132.985 SuperT 107 927 25.2610 132.891 4 102 11 332
1987200N04191 1987 45 WP MM WYNNE 1987-07-28 18:00:00 TS 25.7080 132.686 95 930 tokyo main 623 563 OOOO______P___ jtwc_wp WP071987 25.7000 132.600 100 3 25.7000 132.800 5 95 930 1 100 75 1 200 150 0 25.7000 132.700 6 106 930 25.7000 132.700 SuperT 105 930 25.7398 132.630 4 100 11 336
1987200N04191 1987 45 WP MM WYNNE 1987-07-28 21:00:00 TS 26.2282 132.447 main 560 504 PPPP______P___ WP071987 26.2349 132.420 97 3 26.2650 132.513 5 92 935 1 87 62 1 187 137 26.1925 132.462 6 106 935 26.2000 132.413 SuperT 102 935 26.2487 132.429 4 97 11 341
1987200N04191 1987 45 WP MM WYNNE 1987-07-29 00:00:00 TS 26.7600 132.280 90 940 tokyo main 493 437 OOOO______O___ jtwc_wp WP071987 26.8000 132.300 95 2 26.8000 132.300 5 90 940 2 75 50 2 175 125 0 26.7000 132.300 6 106 940 26.7000 132.200 SuperT 100 940 26.8000 132.300 4 95 11 347
1987200N04191 1987 45 WP MM WYNNE 1987-07-29 03:00:00 TS 27.2811 132.164 main 437 381 PPPP______P___ WP071987 27.3200 132.155 90 2 27.2849 132.197 5 85 947 2 75 50 2 175 125 27.2199 132.198 6 101 945 27.1624 132.090 SuperT 95 945 27.4183 132.181 4 90 11 354
1987200N04191 1987 45 WP MM WYNNE 1987-07-29 06:00:00 TS 27.8552 132.149 80 955 tokyo main 371 314 OOOO______P___ jtwc_wp WP071987 27.9000 132.100 85 2 27.8000 132.200 5 80 955 3 75 50 3 175 125 0 27.8000 132.200 5 97 950 27.7000 132.100 ST 90 950 28.0762 132.143 4 85 13 3
1987200N04191 1987 45 WP MM WYNNE 1987-07-29 09:00:00 TS 28.5426 132.222 main 314 258 PPPP______P___ WP071987 28.6349 132.182 80 1 28.4273 132.233 5 80 962 3 67 45 3 162 112 28.4774 132.290 5 87 960 28.4274 132.197 ST 82 960 28.7461 132.207 4 80 14 10
1987200N04191 1987 45 WP MM WYNNE 1987-07-29 12:00:00 TS 29.2600 132.420 80 970 tokyo main 250 208 OOOO______O___ jtwc_wp WP071987 29.4000 132.400 75 1 29.1000 132.400 5 80 970 3 60 40 3 150 100 0 29.2000 132.500 4 77 970 29.2000 132.400 T 75 970 29.4000 132.400 4 75 15 16
1987200N04191 1987 45 WP MM WYNNE 1987-07-29 15:00:00 TS 29.9473 132.698 main 208 182 PPPP______P___ WP071987 30.0872 132.683 70 1 29.7650 132.740 5 72 972 3 55 35 3 150 87 29.9372 132.783 4 72 972 29.8795 132.626 T 67 972 30.0675 132.658 4 71 15 24
1987200N04191 1987 45 WP MM WYNNE 1987-07-29 18:00:00 TS 30.5807 133.111 65 975 tokyo main 184 184 OOOO______P___ jtwc_wp WP071987 30.7000 133.100 65 1 30.4000 133.200 5 65 975 3 50 30 3 150 75 0 30.6000 133.200 4 68 975 30.5000 133.000 STS 60 975 30.7037 133.054 4 67 15 34
1987200N04191 1987 45 WP MM WYNNE 1987-07-29 21:00:00 TS 31.1474 133.639 main 187 166 PPPP______P___ WP071987 31.2597 133.632 62 0 31.0017 133.633 5 60 977 3 50 30 3 150 75 31.1099 133.748 4 63 977 31.1026 133.582 STS 55 977 31.2632 133.598 4 63 14 45
1987200N04191 1987 45 WP MM WYNNE 1987-07-30 00:00:00 TS 31.6000 134.300 55 980 tokyo main 173 155 OOOO______O___ jtwc_wp WP071987 31.7000 134.300 60 0 31.5000 134.200 4 55 980 3 50 30 3 150 75 0 31.5000 134.400 3 58 980 31.6000 134.300 STS 50 980 31.7000 134.300 2 60 14 56
1987200N04191 1987 45 WP MM WYNNE 1987-07-30 03:00:00 TS 31.9373 135.024 main 163 144 PPPP______P___ WP071987 32.0236 135.010 57 0 31.8597 134.968 4 57 980 3 50 25 3 150 67 31.8594 135.062 3 58 980 31.9731 134.961 STS 50 980 31.9708 135.119 2 60 15 68
1987200N04191 1987 45 WP MM WYNNE 1987-07-30 06:00:00 TS 32.1429 135.897 60 980 tokyo main 145 134 OOOO______P___ jtwc_wp WP071987 32.2000 135.900 55 0 32.1000 135.900 4 60 980 3 50 20 3 150 60 0 32.1000 135.800 3 58 980 32.2000 135.800 STS 50 980 32.1146 136.087 2 60 16 79
1987200N04191 1987 45 WP MM WYNNE 1987-07-30 09:00:00 TS 32.2346 136.918 main 168 168 PPPP______P___ WP071987 32.2301 137.034 57 0 32.3021 136.912 4 60 980 3 62 20 3 162 60 32.1766 136.509 3 58 980 32.2882 136.976 STS 50 980 32.1759 137.160 2 60 18 86
1987200N04191 1987 45 WP MM WYNNE 1987-07-30 12:00:00 TS 32.2600 138.080 60 980 tokyo main 243 243 OOOO______O___ jtwc_wp WP071987 32.2000 138.300 60 0 32.4000 138.000 4 60 980 3 75 20 3 175 60 0 32.2000 137.500 3 58 980 32.3000 138.300 STS 50 980 32.2000 138.300 2 60 20 88
1987200N04191 1987 45 WP MM WYNNE 1987-07-30 15:00:00 TS 32.3080 139.339 main 260 260 PPPP______P___ WP071987 32.2494 139.557 60 0 32.3704 139.049 4 60 980 3 75 20 3 175 60 32.3112 139.081 3 58 980 32.3640 139.557 STS 50 980 32.2450 139.449 2 58 22 88
1987200N04191 1987 45 WP MM WYNNE 1987-07-30 18:00:00 TS 32.3328 140.650 60 980 tokyo main 299 299 OOOO______P___ jtwc_wp WP071987 32.3000 140.800 60 0 32.3000 140.200 4 60 980 4 75 20 4 175 60 0 32.4000 140.800 3 58 980 32.4000 140.800 STS 50 980 32.2641 140.651 2 57 22 90
1987200N04191 1987 45 WP MM WYNNE 1987-07-30 21:00:00 TS 32.3229 141.925 main 343 343 PPPP______P___ WP071987 32.2908 141.958 57 0 32.2862 141.600 4 60 980 4 75 25 4 187 67 32.4125 142.176 3 58 980 32.3489 142.016 STS 50 980 32.2759 141.877 2 56 21 90
1987200N04191 1987 45 WP MM WYNNE 1987-07-31 00:00:00 TS 32.3200 143.160 60 980 tokyo main 413 413 OOOO______O___ jtwc_wp WP071987 32.3000 143.100 55 0 32.3000 143.000 4 60 980 4 75 30 4 200 75 0 32.4000 143.400 3 58 980 32.3000 143.200 STS 50 980 32.3000 143.100 2 55 20 89
1987200N04191 1987 45 WP MM WYNNE 1987-07-31 03:00:00 TS 32.3542 144.334 main 476 476 PPPP______P___ WP071987 32.3918 144.299 52 0 32.3324 144.130 4 60 982 4 82 35 4 200 75 32.3835 144.580 3 58 980 32.3340 144.365 STS 47 982 32.3295 144.296 2 52 20 87
1987200N04191 1987 45 WP MM WYNNE 1987-07-31 06:00:00 TS 32.4158 145.477 60 985 tokyo main 560 560 OOOO______P___ jtwc_wp WP071987 32.5000 145.500 50 0 32.4000 145.200 4 60 985 4 90 40 4 200 75 0 32.4000 145.700 3 58 980 32.4000 145.500 TS 45 985 32.3791 145.483 2 50 19 86
1987200N04191 1987 45 WP MM WYNNE 1987-07-31 09:00:00 TS 32.4816 146.628 main 633 633 PPPP______P___ WP071987 32.5560 146.650 47 0 32.4772 146.400 4 57 985 4 90 40 4 200 75 32.4842 146.822 3 53 982 32.4265 146.616 TS 45 985 32.4641 146.654 2 47 19 85
1987200N04191 1987 45 WP MM WYNNE 1987-07-31 12:00:00 TS 32.5800 147.760 55 985 tokyo main 721 721 OOOO______O___ jtwc_wp WP071987 32.6000 147.800 45 0 32.6000 147.600 4 55 985 4 90 40 4 200 75 0 32.6000 147.900 3 48 985 32.5000 147.700 TS 45 985 32.6000 147.800 2 45 19 84
1987200N04191 1987 45 WP MM WYNNE 1987-07-31 15:00:00 TS 32.6760 148.890 main 806 806 PPPP______P___ WP071987 32.5899 149.025 45 0 32.7617 148.738 4 55 985 4 90 40 4 200 75 32.6617 148.931 3 43 986 32.6309 148.737 TS 45 985 32.7359 149.019 2 45 19 81
1987200N04191 1987 45 WP MM WYNNE 1987-07-31 18:00:00 TS 32.8660 149.981 55 985 tokyo main 890 890 OOOO______P___ jtwc_wp WP071987 32.7000 150.200 45 0 33.0000 149.800 4 55 985 4 90 40 4 200 75 0 32.8000 149.900 2 38 988 32.9000 149.800 TS 45 985 32.9302 150.203 2 45 19 74
1987200N04191 1987 45 WP MM WYNNE 1987-07-31 21:00:00 TS 33.2039 151.063 main 973 973 PPPP______P___ WP071987 33.0519 151.274 45 0 33.3044 150.803 4 50 987 4 4 175 87 33.0975 150.867 2 38 989 33.3570 151.087 TS 42 987 33.2088 151.285 2 45 19 65
1987200N04191 1987 45 WP MM WYNNE 1987-08-01 00:00:00 TS 33.6474 151.989 45 990 tokyo main 1039 1036 OOOO______O___ jtwc_wp WP071987 33.6000 152.200 45 0 33.7000 151.700 3 45 990 0 4 150 100 0 33.5000 151.700 2 38 990 33.9000 152.200 TS 40 990 33.6000 152.200 2 45 17 55
1987200N04191 1987 45 WP MM WYNNE 1987-08-01 03:00:00 TS 34.1644 152.696 main 1085 1085 PPPP______P___ WP071987 34.2770 153.004 42 0 34.1769 152.510 3 42 990 0 4 150 100 33.9565 152.310 2 33 992 34.4133 152.809 TS 40 990 34.1228 152.902 2 41 15 44
1987200N04191 1987 45 WP MM WYNNE 1987-08-01 06:00:00 TS 34.7259 153.242 40 990 tokyo main 1116 1116 OOOO______P___ jtwc_wp WP071987 35.0000 153.600 40 0 34.7000 153.200 3 40 990 0 4 150 100 0 34.4000 152.800 1 29 995 34.9000 153.100 TS 40 990 34.7543 153.429 2 37 14 39
1987200N04191 1987 45 WP MM WYNNE 1987-08-01 09:00:00 TS 35.2392 153.738 main 1128 1111 PPP_______P___ WP071987 35.6325 153.966 35 0 35.1845 153.796 3 40 991 0 4 275 200 34.7358 153.292 1 29 995 TS 35.4589 153.842 2 33 13 38
1987200N04191 1987 45 WP MM WYNNE 1987-08-01 12:00:00 TS 35.7429 154.200 40 992 tokyo main 1117 1096 OOO_______O___ jtwc_wp WP071987 36.2000 154.200 30 -1 35.7000 154.300 3 40 992 0 4 400 300 0 35.0000 153.800 1 29 995 36.2000 154.200 1 30 13 39
1987200N04191 1987 45 WP MM WYNNE 1987-08-01 15:00:00 TS 36.2922 154.773 main 1102 1070 _P____________ WP071987 -1 36.2922 154.773 3 993 0 4 1 1 14 35
1987200N04191 1987 45 WP MM WYNNE 1987-08-01 18:00:00 ET 36.9000 155.200 994 tokyo main 1070 1030 _O____________ -1 36.9000 155.200 6 994 0 0 0 1 13 29
1987200N04191 1987 45 WP MM WYNNE 1987-08-01 21:00:00 ET 37.4266 155.558 main 1034 992 _P____________ -1 37.4266 155.558 6 994 0 0 1 13 30
1987200N04191 1987 45 WP MM WYNNE 1987-08-02 00:00:00 ET 38.0000 156.000 994 tokyo main 992 953 _O____________ -1 38.0000 156.000 6 994 0 0 0 15 33
1987200N04191 1987 45 WP MM WYNNE 1987-08-02 03:00:00 ET 38.7187 156.624 main 953 923 _P____________ -1 38.7187 156.624 6 995 0 0 19 38
1987200N04191 1987 45 WP MM WYNNE 1987-08-02 06:00:00 ET 39.5000 157.500 996 tokyo main 928 922 _O____________ -1 39.5000 157.500 6 996 0 0 0 22 47
1987200N04191 1987 45 WP MM WYNNE 1987-08-02 09:00:00 ET 40.2145 158.714 main 935 933 _P____________ -1 40.2145 158.714 6 996 0 0 24 52
1987200N04191 1987 45 WP MM WYNNE 1987-08-02 12:00:00 ET 41.0000 160.000 996 tokyo main 955 954 _O____________ -1 41.0000 160.000 6 996 0 0 0 24 44
1987200N04191 1987 45 WP MM WYNNE 1987-08-02 15:00:00 ET 41.9584 160.969 main 958 930 _P____________ -1 41.9584 160.969 6 996 0 0 25 37
1987200N04191 1987 45 WP MM WYNNE 1987-08-02 18:00:00 ET 43.0000 162.000 996 tokyo main 923 894 _O____________ -1 43.0000 162.000 6 996 0 0 0 27 41
1987200N04191 1987 45 WP MM WYNNE 1987-08-02 21:00:00 ET 44.0008 163.427 main 889 883 _P____________ -1 44.0008 163.427 6 996 0 0 29 47
1987200N04191 1987 45 WP MM WYNNE 1987-08-03 00:00:00 ET 45.0000 165.000 996 tokyo main 890 878 _O____________ -1 45.0000 165.000 6 996 0 0 0 29 47
1987200N04191 1987 45 WP MM WYNNE 1987-08-03 03:00:00 ET 45.9949 166.435 main 876 873 _P____________ -1 45.9949 166.435 6 995 0 0 29 46
1987200N04191 1987 45 WP MM WYNNE 1987-08-03 06:00:00 ET 47.0000 168.000 994 tokyo main 878 873 _O____________ -1 47.0000 168.000 6 994 0 0 0 31 49
1987200N04191 1987 45 WP MM WYNNE 1987-08-03 09:00:00 ET 48.0357 169.889 main 890 888 _P____________ -1 48.0357 169.889 6 993 0 0 33 53
1987200N04191 1987 45 WP MM WYNNE 1987-08-03 12:00:00 ET 49.0000 172.000 992 tokyo main 924 924 _O____________ -1 49.0000 172.000 6 992 0 0 0 33 58
1987200N04191 1987 45 WP MM WYNNE 1987-08-03 15:00:00 ET 49.7852 174.222 main 981 981 _P____________ -1 49.7852 174.222 6 990 0 0 33 63
1987200N04191 1987 45 WP MM WYNNE 1987-08-03 18:00:00 ET 50.5000 176.500 988 tokyo main 1033 869 _O____________ -1 50.5000 176.500 6 988 0 0 0 32 63
1987200N04191 1987 45 WP MM WYNNE 1987-08-03 21:00:00 ET 51.2448 178.745 main 863 694 _P____________ -1 51.2448 178.745 6 987 0 0 32 62
1987200N04191 1987 45 EP CP WYNNE 1987-08-04 00:00:00 ET 52.0000 181.000 main 687 _O____________ -1 52.0000 181.000 6 986 0 0 0 32 61

IBTrACS Databaseについて

本データベースは、米国NOAAが公開する1842年以降の世界の熱帯低気圧のベストトラックデータアーカイブInternational Best Track Archive for Climate Stewardship (IBTrACS)を、ウェブで閲覧しやすい形式に変換したものです。

最終更新日:2021-10-27